sensor_id;sensor_type;location;lat;lon;timestamp;temperature;humidity
46552;DHT22;32278;51.810;4.712;2022-08-21T00:01:27;17.40;99.90
46552;DHT22;32278;51.810;4.712;2022-08-21T00:03:54;17.40;99.90
46552;DHT22;32278;51.810;4.712;2022-08-21T00:06:21;17.30;99.90
46552;DHT22;32278;51.810;4.712;2022-08-21T00:08:46;17.30;99.90
46552;DHT22;32278;51.810;4.712;2022-08-21T00:11:13;17.30;99.90
46552;DHT22;32278;51.810;4.712;2022-08-21T00:13:39;17.30;99.90
46552;DHT22;32278;51.810;4.712;2022-08-21T00:16:05;17.30;99.90
46552;DHT22;32278;51.810;4.712;2022-08-21T00:18:30;17.30;99.90
46552;DHT22;32278;51.810;4.712;2022-08-21T00:20:56;17.30;99.90
46552;DHT22;32278;51.810;4.712;2022-08-21T00:23:22;17.30;99.90
46552;DHT22;32278;51.810;4.712;2022-08-21T00:25:48;17.30;99.90
46552;DHT22;32278;51.810;4.712;2022-08-21T00:28:14;17.20;99.90
46552;DHT22;32278;51.810;4.712;2022-08-21T00:30:40;17.20;99.90
46552;DHT22;32278;51.810;4.712;2022-08-21T00:33:08;17.20;99.90
46552;DHT22;32278;51.810;4.712;2022-08-21T00:35:37;17.20;99.90
46552;DHT22;32278;51.810;4.712;2022-08-21T00:38:04;17.20;99.90
46552;DHT22;32278;51.810;4.712;2022-08-21T00:40:34;17.20;99.90
46552;DHT22;32278;51.810;4.712;2022-08-21T00:43:03;17.30;99.90
46552;DHT22;32278;51.810;4.712;2022-08-21T00:45:29;17.20;99.90
46552;DHT22;32278;51.810;4.712;2022-08-21T00:47:55;17.20;99.90
46552;DHT22;32278;51.810;4.712;2022-08-21T00:50:22;17.20;99.90
46552;DHT22;32278;51.810;4.712;2022-08-21T00:52:50;17.30;99.90
46552;DHT22;32278;51.810;4.712;2022-08-21T00:55:16;17.20;99.90
46552;DHT22;32278;51.810;4.712;2022-08-21T00:57:47;17.20;99.90
46552;DHT22;32278;51.810;4.712;2022-08-21T01:00:17;17.20;99.90
46552;DHT22;32278;51.810;4.712;2022-08-21T01:02:44;17.20;99.90
46552;DHT22;32278;51.810;4.712;2022-08-21T01:05:11;17.20;99.90
46552;DHT22;32278;51.810;4.712;2022-08-21T01:07:36;17.20;99.90
46552;DHT22;32278;51.810;4.712;2022-08-21T01:10:05;17.20;99.90
46552;DHT22;32278;51.810;4.712;2022-08-21T01:12:31;17.20;99.90
46552;DHT22;32278;51.810;4.712;2022-08-21T01:14:57;17.20;99.90
46552;DHT22;32278;51.810;4.712;2022-08-21T01:17:24;17.20;99.90
46552;DHT22;32278;51.810;4.712;2022-08-21T01:19:50;17.20;99.90
46552;DHT22;32278;51.810;4.712;2022-08-21T01:22:15;17.20;99.90
46552;DHT22;32278;51.810;4.712;2022-08-21T01:24:41;17.20;99.90
46552;DHT22;32278;51.810;4.712;2022-08-21T01:27:07;17.10;99.90
46552;DHT22;32278;51.810;4.712;2022-08-21T01:29:41;17.00;99.90
46552;DHT22;32278;51.810;4.712;2022-08-21T01:32:13;17.10;99.90
46552;DHT22;32278;51.810;4.712;2022-08-21T01:34:43;17.10;99.90
46552;DHT22;32278;51.810;4.712;2022-08-21T01:37:09;17.10;99.90
46552;DHT22;32278;51.810;4.712;2022-08-21T01:39:35;17.20;99.90
46552;DHT22;32278;51.810;4.712;2022-08-21T01:42:03;17.10;99.90
46552;DHT22;32278;51.810;4.712;2022-08-21T01:44:28;17.10;99.90
46552;DHT22;32278;51.810;4.712;2022-08-21T01:46:54;17.00;99.90
46552;DHT22;32278;51.810;4.712;2022-08-21T01:49:21;17.10;99.90
46552;DHT22;32278;51.810;4.712;2022-08-21T01:51:47;17.10;99.90
46552;DHT22;32278;51.810;4.712;2022-08-21T01:54:12;17.00;99.90
46552;DHT22;32278;51.810;4.712;2022-08-21T01:56:41;17.00;99.90
46552;DHT22;32278;51.810;4.712;2022-08-21T01:59:08;17.00;99.90
46552;DHT22;32278;51.810;4.712;2022-08-21T02:01:34;17.00;99.90
46552;DHT22;32278;51.810;4.712;2022-08-21T02:03:59;16.90;99.90
46552;DHT22;32278;51.810;4.712;2022-08-21T02:06:26;16.90;99.90
46552;DHT22;32278;51.810;4.712;2022-08-21T02:08:52;16.90;99.90
46552;DHT22;32278;51.810;4.712;2022-08-21T02:11:18;16.80;99.90
46552;DHT22;32278;51.810;4.712;2022-08-21T02:13:44;16.80;99.90
46552;DHT22;32278;51.810;4.712;2022-08-21T02:16:10;16.90;99.90
46552;DHT22;32278;51.810;4.712;2022-08-21T02:18:36;16.80;99.90
46552;DHT22;32278;51.810;4.712;2022-08-21T02:21:03;16.90;99.90
46552;DHT22;32278;51.810;4.712;2022-08-21T02:23:29;16.80;99.90
46552;DHT22;32278;51.810;4.712;2022-08-21T02:25:57;16.70;99.90
46552;DHT22;32278;51.810;4.712;2022-08-21T02:28:23;16.80;99.90
46552;DHT22;32278;51.810;4.712;2022-08-21T02:30:49;16.80;99.90
46552;DHT22;32278;51.810;4.712;2022-08-21T02:33:16;16.60;99.90
46552;DHT22;32278;51.810;4.712;2022-08-21T02:35:43;16.60;99.90
46552;DHT22;32278;51.810;4.712;2022-08-21T02:38:12;16.70;99.90
46552;DHT22;32278;51.810;4.712;2022-08-21T02:40:40;16.70;99.90
46552;DHT22;32278;51.810;4.712;2022-08-21T02:43:07;16.80;99.90
46552;DHT22;32278;51.810;4.712;2022-08-21T02:45:33;16.70;99.90
46552;DHT22;32278;51.810;4.712;2022-08-21T02:48:02;16.80;99.90
46552;DHT22;32278;51.810;4.712;2022-08-21T02:50:34;16.70;99.90
46552;DHT22;32278;51.810;4.712;2022-08-21T02:53:00;16.70;99.90
46552;DHT22;32278;51.810;4.712;2022-08-21T02:55:28;16.60;99.90
46552;DHT22;32278;51.810;4.712;2022-08-21T02:57:56;16.70;99.90
46552;DHT22;32278;51.810;4.712;2022-08-21T03:00:23;16.70;99.90
46552;DHT22;32278;51.810;4.712;2022-08-21T03:02:50;16.70;99.90
46552;DHT22;32278;51.810;4.712;2022-08-21T03:05:17;16.60;99.90
46552;DHT22;32278;51.810;4.712;2022-08-21T03:07:44;16.60;99.90
46552;DHT22;32278;51.810;4.712;2022-08-21T03:10:10;16.50;99.90
46552;DHT22;32278;51.810;4.712;2022-08-21T03:12:36;16.50;99.90
46552;DHT22;32278;51.810;4.712;2022-08-21T03:15:07;16.50;99.90
46552;DHT22;32278;51.810;4.712;2022-08-21T03:17:33;16.40;99.90
46552;DHT22;32278;51.810;4.712;2022-08-21T03:19:59;16.40;99.90
46552;DHT22;32278;51.810;4.712;2022-08-21T03:22:26;16.50;99.90
46552;DHT22;32278;51.810;4.712;2022-08-21T03:24:52;16.50;99.90
46552;DHT22;32278;51.810;4.712;2022-08-21T03:27:19;16.50;99.90
46552;DHT22;32278;51.810;4.712;2022-08-21T03:29:44;16.50;99.90
46552;DHT22;32278;51.810;4.712;2022-08-21T03:32:10;16.40;99.90
46552;DHT22;32278;51.810;4.712;2022-08-21T03:34:37;16.40;99.90
46552;DHT22;32278;51.810;4.712;2022-08-21T03:37:04;16.50;99.90
46552;DHT22;32278;51.810;4.712;2022-08-21T03:39:30;16.50;99.90
46552;DHT22;32278;51.810;4.712;2022-08-21T03:41:55;16.60;99.90
46552;DHT22;32278;51.810;4.712;2022-08-21T03:44:21;16.60;99.90
46552;DHT22;32278;51.810;4.712;2022-08-21T03:46:47;16.60;99.90
46552;DHT22;32278;51.810;4.712;2022-08-21T03:49:12;16.50;99.90
46552;DHT22;32278;51.810;4.712;2022-08-21T03:51:38;16.50;99.90
46552;DHT22;32278;51.810;4.712;2022-08-21T03:54:04;16.50;99.90
46552;DHT22;32278;51.810;4.712;2022-08-21T03:56:30;16.50;99.90
46552;DHT22;32278;51.810;4.712;2022-08-21T03:58:55;16.40;99.90
46552;DHT22;32278;51.810;4.712;2022-08-21T04:01:21;16.40;99.90
46552;DHT22;32278;51.810;4.712;2022-08-21T04:03:47;16.30;99.90
46552;DHT22;32278;51.810;4.712;2022-08-21T04:06:13;16.30;99.90
46552;DHT22;32278;51.810;4.712;2022-08-21T04:08:38;16.30;99.90
46552;DHT22;32278;51.810;4.712;2022-08-21T04:11:04;16.30;99.90
46552;DHT22;32278;51.810;4.712;2022-08-21T04:13:31;16.30;99.90
46552;DHT22;32278;51.810;4.712;2022-08-21T04:15:57;16.20;99.90
46552;DHT22;32278;51.810;4.712;2022-08-21T04:18:23;16.30;99.90
46552;DHT22;32278;51.810;4.712;2022-08-21T04:20:51;16.30;99.90
46552;DHT22;32278;51.810;4.712;2022-08-21T04:23:21;16.30;99.90
46552;DHT22;32278;51.810;4.712;2022-08-21T04:25:47;16.30;99.90
46552;DHT22;32278;51.810;4.712;2022-08-21T04:28:13;16.30;99.90
46552;DHT22;32278;51.810;4.712;2022-08-21T04:30:38;16.30;99.90
46552;DHT22;32278;51.810;4.712;2022-08-21T04:33:04;16.30;99.90
46552;DHT22;32278;51.810;4.712;2022-08-21T04:35:30;16.40;99.90
46552;DHT22;32278;51.810;4.712;2022-08-21T04:37:56;16.40;99.90
46552;DHT22;32278;51.810;4.712;2022-08-21T04:40:24;16.40;99.90
46552;DHT22;32278;51.810;4.712;2022-08-21T04:43:00;16.30;99.90
46552;DHT22;32278;51.810;4.712;2022-08-21T04:45:32;16.40;99.90
46552;DHT22;32278;51.810;4.712;2022-08-21T04:48:00;16.50;99.90
46552;DHT22;32278;51.810;4.712;2022-08-21T04:53:25;16.50;99.90
46552;DHT22;32278;51.810;4.712;2022-08-21T04:55:53;16.50;99.90
46552;DHT22;32278;51.810;4.712;2022-08-21T04:58:20;16.60;99.90
46552;DHT22;32278;51.810;4.712;2022-08-21T05:00:48;16.60;99.90
46552;DHT22;32278;51.810;4.712;2022-08-21T05:03:14;16.60;99.90
46552;DHT22;32278;51.810;4.712;2022-08-21T05:05:42;16.60;99.90
46552;DHT22;32278;51.810;4.712;2022-08-21T05:08:09;16.60;99.90
46552;DHT22;32278;51.810;4.712;2022-08-21T05:10:37;16.60;99.90
46552;DHT22;32278;51.810;4.712;2022-08-21T05:13:03;16.70;99.90
46552;DHT22;32278;51.810;4.712;2022-08-21T05:15:30;16.70;99.90
46552;DHT22;32278;51.810;4.712;2022-08-21T05:17:57;16.80;99.90
46552;DHT22;32278;51.810;4.712;2022-08-21T05:20:22;16.80;99.90
46552;DHT22;32278;51.810;4.712;2022-08-21T05:22:48;16.80;99.90
46552;DHT22;32278;51.810;4.712;2022-08-21T05:25:14;16.90;99.90
46552;DHT22;32278;51.810;4.712;2022-08-21T05:27:39;16.90;99.90
46552;DHT22;32278;51.810;4.712;2022-08-21T05:30:07;16.90;99.90
46552;DHT22;32278;51.810;4.712;2022-08-21T05:32:33;16.90;99.90
46552;DHT22;32278;51.810;4.712;2022-08-21T05:34:59;17.00;99.90
46552;DHT22;32278;51.810;4.712;2022-08-21T05:37:25;17.10;99.90
46552;DHT22;32278;51.810;4.712;2022-08-21T05:39:50;17.00;99.90
46552;DHT22;32278;51.810;4.712;2022-08-21T05:42:16;17.10;99.90
46552;DHT22;32278;51.810;4.712;2022-08-21T05:44:42;17.20;99.90
46552;DHT22;32278;51.810;4.712;2022-08-21T05:47:10;17.30;99.90
46552;DHT22;32278;51.810;4.712;2022-08-21T05:49:36;17.20;99.90
46552;DHT22;32278;51.810;4.712;2022-08-21T05:52:02;17.20;99.90
46552;DHT22;32278;51.810;4.712;2022-08-21T05:54:28;17.20;99.90
46552;DHT22;32278;51.810;4.712;2022-08-21T05:56:54;17.30;99.90
46552;DHT22;32278;51.810;4.712;2022-08-21T05:59:19;17.30;99.90
46552;DHT22;32278;51.810;4.712;2022-08-21T06:01:45;17.30;99.90
46552;DHT22;32278;51.810;4.712;2022-08-21T06:04:11;17.30;99.90
46552;DHT22;32278;51.810;4.712;2022-08-21T06:06:37;17.30;99.90
46552;DHT22;32278;51.810;4.712;2022-08-21T06:09:03;17.30;99.90
46552;DHT22;32278;51.810;4.712;2022-08-21T06:11:29;17.30;99.90
46552;DHT22;32278;51.810;4.712;2022-08-21T06:13:55;17.40;99.90
46552;DHT22;32278;51.810;4.712;2022-08-21T06:16:21;17.40;99.90
46552;DHT22;32278;51.810;4.712;2022-08-21T06:18:48;17.50;99.90
46552;DHT22;32278;51.810;4.712;2022-08-21T06:21:13;17.50;99.90
46552;DHT22;32278;51.810;4.712;2022-08-21T06:23:40;17.50;99.90
46552;DHT22;32278;51.810;4.712;2022-08-21T06:26:07;17.70;99.90
46552;DHT22;32278;51.810;4.712;2022-08-21T06:28:33;17.70;99.90
46552;DHT22;32278;51.810;4.712;2022-08-21T06:31:00;17.70;99.90
46552;DHT22;32278;51.810;4.712;2022-08-21T06:33:25;17.80;99.90
46552;DHT22;32278;51.810;4.712;2022-08-21T06:35:51;17.70;99.90
46552;DHT22;32278;51.810;4.712;2022-08-21T06:38:17;17.80;99.90
46552;DHT22;32278;51.810;4.712;2022-08-21T06:40:42;17.80;99.90
46552;DHT22;32278;51.810;4.712;2022-08-21T06:43:11;17.80;99.90
46552;DHT22;32278;51.810;4.712;2022-08-21T06:45:37;17.90;99.90
46552;DHT22;32278;51.810;4.712;2022-08-21T06:48:03;18.10;99.90
46552;DHT22;32278;51.810;4.712;2022-08-21T06:50:29;18.10;99.90
46552;DHT22;32278;51.810;4.712;2022-08-21T06:53:03;18.00;99.90
46552;DHT22;32278;51.810;4.712;2022-08-21T06:55:29;18.10;99.90
46552;DHT22;32278;51.810;4.712;2022-08-21T06:57:55;18.20;99.90
46552;DHT22;32278;51.810;4.712;2022-08-21T07:00:21;18.30;99.90
46552;DHT22;32278;51.810;4.712;2022-08-21T07:02:47;18.20;99.90
46552;DHT22;32278;51.810;4.712;2022-08-21T07:05:13;18.20;99.90
46552;DHT22;32278;51.810;4.712;2022-08-21T07:07:38;18.30;99.90
46552;DHT22;32278;51.810;4.712;2022-08-21T07:10:04;18.40;99.90
46552;DHT22;32278;51.810;4.712;2022-08-21T07:12:30;18.40;99.90
46552;DHT22;32278;51.810;4.712;2022-08-21T07:14:56;18.60;99.90
46552;DHT22;32278;51.810;4.712;2022-08-21T07:17:22;18.70;99.90
46552;DHT22;32278;51.810;4.712;2022-08-21T07:19:47;18.60;99.90
46552;DHT22;32278;51.810;4.712;2022-08-21T07:22:14;18.60;99.90
46552;DHT22;32278;51.810;4.712;2022-08-21T07:24:41;18.70;99.90
46552;DHT22;32278;51.810;4.712;2022-08-21T07:27:07;18.90;99.90
46552;DHT22;32278;51.810;4.712;2022-08-21T07:29:32;19.00;99.90
46552;DHT22;32278;51.810;4.712;2022-08-21T07:31:58;19.10;99.90
46552;DHT22;32278;51.810;4.712;2022-08-21T07:34:23;19.10;99.90
46552;DHT22;32278;51.810;4.712;2022-08-21T07:36:49;19.20;99.90
46552;DHT22;32278;51.810;4.712;2022-08-21T07:39:14;19.50;99.90
46552;DHT22;32278;51.810;4.712;2022-08-21T07:41:40;19.40;99.90
46552;DHT22;32278;51.810;4.712;2022-08-21T07:44:05;19.60;99.90
46552;DHT22;32278;51.810;4.712;2022-08-21T07:46:31;19.50;99.90
46552;DHT22;32278;51.810;4.712;2022-08-21T07:48:56;19.80;99.90
46552;DHT22;32278;51.810;4.712;2022-08-21T07:51:25;19.70;99.90
46552;DHT22;32278;51.810;4.712;2022-08-21T07:53:54;19.90;99.90
46552;DHT22;32278;51.810;4.712;2022-08-21T07:56:20;20.10;99.90
46552;DHT22;32278;51.810;4.712;2022-08-21T07:58:46;20.30;99.90
46552;DHT22;32278;51.810;4.712;2022-08-21T08:01:13;20.60;99.90
46552;DHT22;32278;51.810;4.712;2022-08-21T08:03:39;20.80;99.90
46552;DHT22;32278;51.810;4.712;2022-08-21T08:06:05;21.00;99.90
46552;DHT22;32278;51.810;4.712;2022-08-21T08:08:32;20.90;99.90
46552;DHT22;32278;51.810;4.712;2022-08-21T08:10:58;21.00;99.90
46552;DHT22;32278;51.810;4.712;2022-08-21T08:13:25;21.40;99.90
46552;DHT22;32278;51.810;4.712;2022-08-21T08:15:51;21.60;99.90
46552;DHT22;32278;51.810;4.712;2022-08-21T08:18:16;21.60;99.90
46552;DHT22;32278;51.810;4.712;2022-08-21T08:20:42;21.60;99.90
46552;DHT22;32278;51.810;4.712;2022-08-21T08:23:14;21.60;99.90
46552;DHT22;32278;51.810;4.712;2022-08-21T08:25:40;21.80;99.90
46552;DHT22;32278;51.810;4.712;2022-08-21T08:28:06;22.00;99.90
46552;DHT22;32278;51.810;4.712;2022-08-21T08:30:32;21.80;99.90
46552;DHT22;32278;51.810;4.712;2022-08-21T08:32:58;22.00;99.90
46552;DHT22;32278;51.810;4.712;2022-08-21T08:35:25;21.60;99.90
46552;DHT22;32278;51.810;4.712;2022-08-21T08:37:51;21.50;99.90
46552;DHT22;32278;51.810;4.712;2022-08-21T08:40:48;21.40;99.90
46552;DHT22;32278;51.810;4.712;2022-08-21T08:43:15;21.50;99.90
46552;DHT22;32278;51.810;4.712;2022-08-21T08:45:49;21.70;99.90
46552;DHT22;32278;51.810;4.712;2022-08-21T08:49:11;21.90;99.90
46552;DHT22;32278;51.810;4.712;2022-08-21T08:54:20;21.80;99.90
46552;DHT22;32278;51.810;4.712;2022-08-21T08:56:46;21.50;99.90
46552;DHT22;32278;51.810;4.712;2022-08-21T08:59:18;21.40;99.90
46552;DHT22;32278;51.810;4.712;2022-08-21T09:01:45;21.40;99.90
46552;DHT22;32278;51.810;4.712;2022-08-21T09:04:11;21.50;99.90
46552;DHT22;32278;51.810;4.712;2022-08-21T09:09:20;21.60;99.90
46552;DHT22;32278;51.810;4.712;2022-08-21T09:14:31;22.00;99.90
46552;DHT22;32278;51.810;4.712;2022-08-21T09:17:19;21.90;99.90
46552;DHT22;32278;51.810;4.712;2022-08-21T09:25:34;22.80;99.90
46552;DHT22;32278;51.810;4.712;2022-08-21T09:28:09;22.70;99.90
46552;DHT22;32278;51.810;4.712;2022-08-21T09:30:39;22.80;99.90
46552;DHT22;32278;51.810;4.712;2022-08-21T09:33:06;22.60;99.90
46552;DHT22;32278;51.810;4.712;2022-08-21T09:35:32;22.50;99.90
46552;DHT22;32278;51.810;4.712;2022-08-21T09:38:03;22.30;99.90
46552;DHT22;32278;51.810;4.712;2022-08-21T09:45:29;22.70;99.90
46552;DHT22;32278;51.810;4.712;2022-08-21T09:47:55;22.50;99.90
46552;DHT22;32278;51.810;4.712;2022-08-21T09:50:24;22.70;99.90
46552;DHT22;32278;51.810;4.712;2022-08-21T09:52:54;22.80;99.90
46552;DHT22;32278;51.810;4.712;2022-08-21T09:55:33;22.90;99.90
46552;DHT22;32278;51.810;4.712;2022-08-21T09:58:18;22.90;99.90
46552;DHT22;32278;51.810;4.712;2022-08-21T10:00:45;23.20;99.90
46552;DHT22;32278;51.810;4.712;2022-08-21T10:03:21;23.20;99.90
46552;DHT22;32278;51.810;4.712;2022-08-21T10:06:01;23.40;99.90
46552;DHT22;32278;51.810;4.712;2022-08-21T10:08:32;23.30;99.90
46552;DHT22;32278;51.810;4.712;2022-08-21T10:13:51;23.40;99.90
46552;DHT22;32278;51.810;4.712;2022-08-21T10:19:39;23.50;99.90
46552;DHT22;32278;51.810;4.712;2022-08-21T10:27:49;23.70;99.90
46552;DHT22;32278;51.810;4.712;2022-08-21T10:30:36;23.60;99.90
46552;DHT22;32278;51.810;4.712;2022-08-21T10:33:14;23.30;99.90
46552;DHT22;32278;51.810;4.712;2022-08-21T10:38:41;23.00;99.90
46552;DHT22;32278;51.810;4.712;2022-08-21T10:44:11;24.00;99.90
46552;DHT22;32278;51.810;4.712;2022-08-21T10:46:45;24.00;99.90
46552;DHT22;32278;51.810;4.712;2022-08-21T10:52:21;24.00;99.90
46552;DHT22;32278;51.810;4.712;2022-08-21T10:54:57;24.20;99.90
46552;DHT22;32278;51.810;4.712;2022-08-21T10:59:57;24.20;99.90
46552;DHT22;32278;51.810;4.712;2022-08-21T11:02:31;24.40;99.90
46552;DHT22;32278;51.810;4.712;2022-08-21T11:05:08;24.70;99.90
46552;DHT22;32278;51.810;4.712;2022-08-21T11:07:43;24.60;99.90
46552;DHT22;32278;51.810;4.712;2022-08-21T11:12:56;24.80;99.90
46552;DHT22;32278;51.810;4.712;2022-08-21T11:23:41;24.10;99.90
46552;DHT22;32278;51.810;4.712;2022-08-21T11:26:23;24.50;99.90
46552;DHT22;32278;51.810;4.712;2022-08-21T11:28:58;24.80;99.90
46552;DHT22;32278;51.810;4.712;2022-08-21T11:54:42;24.30;99.90
46552;DHT22;32278;51.810;4.712;2022-08-21T11:57:20;24.70;99.90
46552;DHT22;32278;51.810;4.712;2022-08-21T12:00:07;25.30;99.90
46552;DHT22;32278;51.810;4.712;2022-08-21T12:02:45;25.00;99.90
46552;DHT22;32278;51.810;4.712;2022-08-21T12:05:30;24.90;99.90
46552;DHT22;32278;51.810;4.712;2022-08-21T12:08:09;25.20;99.90
46552;DHT22;32278;51.810;4.712;2022-08-21T12:10:38;25.40;99.90
46552;DHT22;32278;51.810;4.712;2022-08-21T12:13:22;25.00;99.90
46552;DHT22;32278;51.810;4.712;2022-08-21T12:15:47;25.10;99.90
46552;DHT22;32278;51.810;4.712;2022-08-21T12:18:30;24.80;99.90
46552;DHT22;32278;51.810;4.712;2022-08-21T12:21:19;24.40;99.90
46552;DHT22;32278;51.810;4.712;2022-08-21T12:24:01;24.10;99.90
46552;DHT22;32278;51.810;4.712;2022-08-21T12:26:32;23.80;99.90
46552;DHT22;32278;51.810;4.712;2022-08-21T12:29:31;23.40;99.90
46552;DHT22;32278;51.810;4.712;2022-08-21T12:34:44;24.30;99.90
46552;DHT22;32278;51.810;4.712;2022-08-21T12:37:34;24.80;99.90
46552;DHT22;32278;51.810;4.712;2022-08-21T12:40:09;24.90;99.90
46552;DHT22;32278;51.810;4.712;2022-08-21T12:42:45;25.60;99.90
46552;DHT22;32278;51.810;4.712;2022-08-21T12:45:32;26.00;99.90
46552;DHT22;32278;51.810;4.712;2022-08-21T12:48:08;26.40;99.90
46552;DHT22;32278;51.810;4.712;2022-08-21T12:50:43;26.50;99.90
46552;DHT22;32278;51.810;4.712;2022-08-21T12:55:54;26.00;99.90
46552;DHT22;32278;51.810;4.712;2022-08-21T12:58:25;26.00;99.90
46552;DHT22;32278;51.810;4.712;2022-08-21T13:03:46;25.00;99.90
46552;DHT22;32278;51.810;4.712;2022-08-21T13:06:17;24.10;99.90
46552;DHT22;32278;51.810;4.712;2022-08-21T13:08:45;23.80;99.90
46552;DHT22;32278;51.810;4.712;2022-08-21T13:11:14;24.10;99.90
46552;DHT22;32278;51.810;4.712;2022-08-21T13:13:42;24.30;99.90
46552;DHT22;32278;51.810;4.712;2022-08-21T13:16:08;24.60;99.90
46552;DHT22;32278;51.810;4.712;2022-08-21T13:19:02;24.90;99.90
46552;DHT22;32278;51.810;4.712;2022-08-21T13:21:34;24.90;99.90
46552;DHT22;32278;51.810;4.712;2022-08-21T13:26:35;25.70;99.90
46552;DHT22;32278;51.810;4.712;2022-08-21T13:29:11;25.80;99.90
46552;DHT22;32278;51.810;4.712;2022-08-21T13:31:38;25.60;99.90
46552;DHT22;32278;51.810;4.712;2022-08-21T13:34:05;25.50;99.90
46552;DHT22;32278;51.810;4.712;2022-08-21T13:36:35;25.30;99.90
46552;DHT22;32278;51.810;4.712;2022-08-21T13:39:07;25.00;99.90
46552;DHT22;32278;51.810;4.712;2022-08-21T13:41:39;24.90;99.90
46552;DHT22;32278;51.810;4.712;2022-08-21T13:46:59;24.40;99.90
46552;DHT22;32278;51.810;4.712;2022-08-21T13:49:35;24.40;99.90
46552;DHT22;32278;51.810;4.712;2022-08-21T13:52:03;24.30;99.90
46552;DHT22;32278;51.810;4.712;2022-08-21T13:54:37;24.00;99.90
46552;DHT22;32278;51.810;4.712;2022-08-21T13:57:18;23.60;99.90
46552;DHT22;32278;51.810;4.712;2022-08-21T13:59:45;23.60;99.90
46552;DHT22;32278;51.810;4.712;2022-08-21T14:02:18;23.40;99.90
46552;DHT22;32278;51.810;4.712;2022-08-21T14:04:53;23.10;99.90
46552;DHT22;32278;51.810;4.712;2022-08-21T14:07:24;23.20;99.90
46552;DHT22;32278;51.810;4.712;2022-08-21T14:09:52;23.50;99.90
46552;DHT22;32278;51.810;4.712;2022-08-21T14:12:46;23.70;99.90
46552;DHT22;32278;51.810;4.712;2022-08-21T14:15:14;23.70;99.90
46552;DHT22;32278;51.810;4.712;2022-08-21T14:17:42;23.40;99.90
46552;DHT22;32278;51.810;4.712;2022-08-21T14:20:28;23.40;99.90
46552;DHT22;32278;51.810;4.712;2022-08-21T14:22:54;23.10;99.90
46552;DHT22;32278;51.810;4.712;2022-08-21T14:32:52;23.10;99.90
46552;DHT22;32278;51.810;4.712;2022-08-21T14:35:18;23.40;99.90
46552;DHT22;32278;51.810;4.712;2022-08-21T14:37:46;23.40;99.90
46552;DHT22;32278;51.810;4.712;2022-08-21T14:40:12;23.60;99.90
46552;DHT22;32278;51.810;4.712;2022-08-21T14:42:39;23.80;99.90
46552;DHT22;32278;51.810;4.712;2022-08-21T14:45:17;23.90;99.90
46552;DHT22;32278;51.810;4.712;2022-08-21T14:47:43;24.20;99.90
46552;DHT22;32278;51.810;4.712;2022-08-21T14:50:10;24.00;99.90
46552;DHT22;32278;51.810;4.712;2022-08-21T14:52:36;24.20;99.90
46552;DHT22;32278;51.810;4.712;2022-08-21T14:55:03;23.90;99.90
46552;DHT22;32278;51.810;4.712;2022-08-21T14:57:30;23.20;99.90
46552;DHT22;32278;51.810;4.712;2022-08-21T14:59:56;23.40;99.90
46552;DHT22;32278;51.810;4.712;2022-08-21T15:02:22;23.60;99.90
46552;DHT22;32278;51.810;4.712;2022-08-21T15:04:47;23.60;99.90
46552;DHT22;32278;51.810;4.712;2022-08-21T15:07:13;23.80;99.90
46552;DHT22;32278;51.810;4.712;2022-08-21T15:09:39;23.80;99.90
46552;DHT22;32278;51.810;4.712;2022-08-21T15:12:05;23.80;99.90
46552;DHT22;32278;51.810;4.712;2022-08-21T15:14:34;23.80;99.90
46552;DHT22;32278;51.810;4.712;2022-08-21T15:17:01;23.70;99.90
46552;DHT22;32278;51.810;4.712;2022-08-21T15:19:29;23.60;99.90
46552;DHT22;32278;51.810;4.712;2022-08-21T15:21:55;23.70;99.90
46552;DHT22;32278;51.810;4.712;2022-08-21T15:24:20;23.50;99.90
46552;DHT22;32278;51.810;4.712;2022-08-21T15:26:46;23.50;99.90
46552;DHT22;32278;51.810;4.712;2022-08-21T15:29:13;23.40;99.90
46552;DHT22;32278;51.810;4.712;2022-08-21T15:31:53;23.40;99.90
46552;DHT22;32278;51.810;4.712;2022-08-21T15:34:20;23.30;99.90
46552;DHT22;32278;51.810;4.712;2022-08-21T15:36:46;23.40;99.90
46552;DHT22;32278;51.810;4.712;2022-08-21T15:39:11;23.40;99.90
46552;DHT22;32278;51.810;4.712;2022-08-21T15:41:37;23.40;99.90
46552;DHT22;32278;51.810;4.712;2022-08-21T15:44:03;23.50;99.90
46552;DHT22;32278;51.810;4.712;2022-08-21T15:46:28;23.30;99.90
46552;DHT22;32278;51.810;4.712;2022-08-21T15:48:54;23.10;99.90
46552;DHT22;32278;51.810;4.712;2022-08-21T15:51:19;23.30;99.90
46552;DHT22;32278;51.810;4.712;2022-08-21T15:53:45;23.30;99.90
46552;DHT22;32278;51.810;4.712;2022-08-21T15:58:52;23.10;99.90
46552;DHT22;32278;51.810;4.712;2022-08-21T16:01:19;23.10;99.90
46552;DHT22;32278;51.810;4.712;2022-08-21T16:03:48;23.20;99.90
46552;DHT22;32278;51.810;4.712;2022-08-21T16:06:13;23.30;99.90
46552;DHT22;32278;51.810;4.712;2022-08-21T16:08:39;23.30;99.90
46552;DHT22;32278;51.810;4.712;2022-08-21T16:11:05;23.30;99.90
46552;DHT22;32278;51.810;4.712;2022-08-21T16:13:38;23.10;99.90
46552;DHT22;32278;51.810;4.712;2022-08-21T16:16:05;23.00;99.90
46552;DHT22;32278;51.810;4.712;2022-08-21T16:18:31;23.00;99.90
46552;DHT22;32278;51.810;4.712;2022-08-21T16:20:57;22.90;99.90
46552;DHT22;32278;51.810;4.712;2022-08-21T16:23:23;22.90;99.90
46552;DHT22;32278;51.810;4.712;2022-08-21T16:25:48;23.10;99.90
46552;DHT22;32278;51.810;4.712;2022-08-21T16:28:17;22.80;99.90
46552;DHT22;32278;51.810;4.712;2022-08-21T16:30:45;22.80;99.90
46552;DHT22;32278;51.810;4.712;2022-08-21T16:33:39;23.00;99.90
46552;DHT22;32278;51.810;4.712;2022-08-21T16:36:06;22.80;99.90
46552;DHT22;32278;51.810;4.712;2022-08-21T16:38:32;22.60;99.90
46552;DHT22;32278;51.810;4.712;2022-08-21T16:40:59;22.40;99.90
46552;DHT22;32278;51.810;4.712;2022-08-21T16:43:27;22.50;99.90
46552;DHT22;32278;51.810;4.712;2022-08-21T16:45:55;22.50;99.90
46552;DHT22;32278;51.810;4.712;2022-08-21T16:48:21;22.40;99.90
46552;DHT22;32278;51.810;4.712;2022-08-21T16:50:47;22.20;99.90
46552;DHT22;32278;51.810;4.712;2022-08-21T16:53:13;22.20;99.90
46552;DHT22;32278;51.810;4.712;2022-08-21T16:55:39;22.20;99.90
46552;DHT22;32278;51.810;4.712;2022-08-21T16:58:09;22.00;99.90
46552;DHT22;32278;51.810;4.712;2022-08-21T17:00:35;21.90;99.90
46552;DHT22;32278;51.810;4.712;2022-08-21T17:03:00;22.00;99.90
46552;DHT22;32278;51.810;4.712;2022-08-21T17:05:26;22.00;99.90
46552;DHT22;32278;51.810;4.712;2022-08-21T17:07:52;22.10;99.90
46552;DHT22;32278;51.810;4.712;2022-08-21T17:10:17;22.20;99.90
46552;DHT22;32278;51.810;4.712;2022-08-21T17:12:46;22.30;99.90
46552;DHT22;32278;51.810;4.712;2022-08-21T17:15:24;22.40;99.90
46552;DHT22;32278;51.810;4.712;2022-08-21T17:17:51;22.40;99.90
46552;DHT22;32278;51.810;4.712;2022-08-21T17:20:18;22.10;99.90
46552;DHT22;32278;51.810;4.712;2022-08-21T17:22:44;22.20;99.90